createdAt,value
2023-01-20T00:04:41.041Z,94944.06
2023-01-20T00:09:42.510Z,94942.22
2023-01-20T00:14:44.050Z,94954.66
2023-01-20T00:19:45.515Z,94962.38
2023-01-20T00:24:46.993Z,94961.41
2023-01-20T00:29:48.451Z,94966.81
2023-01-20T00:34:49.915Z,94976.66
2023-01-20T00:39:51.438Z,94967.44
2023-01-20T00:44:52.891Z,94991.34
2023-01-20T00:49:54.437Z,94982.72
2023-01-20T00:54:55.910Z,94987.22
2023-01-20T00:59:57.413Z,94994.63
2023-01-20T01:04:58.859Z,95004.44
2023-01-20T01:10:00.379Z,95005.63
2023-01-20T01:15:02.282Z,95010.16
2023-01-20T01:20:04.428Z,95014.47
2023-01-20T01:25:06.615Z,95016.47
2023-01-20T01:30:08.793Z,95022.38
2023-01-20T01:35:10.255Z,95030.47
2023-01-20T01:40:12.181Z,95041.84
2023-01-20T01:45:20.454Z,95038.41
2023-01-20T01:50:37.735Z,95048.28
2023-01-20T01:55:43.745Z,95050.53
2023-01-20T02:00:46.560Z,95048.34
2023-01-20T02:05:50.610Z,95047.41
2023-01-20T02:10:52.099Z,95051.59
2023-01-20T02:16:22.857Z,95054.47
2023-01-20T02:21:54.910Z,95056.97
2023-01-20T02:27:11.521Z,95060.69
2023-01-20T02:32:37.210Z,95058.25
2023-01-20T02:37:58.496Z,95074.47
2023-01-20T02:43:17.617Z,95080.34
2023-01-20T02:48:28.045Z,95077.00
2023-01-20T02:53:38.001Z,95080.53
2023-01-20T02:58:46.118Z,95084.81
2023-01-20T03:03:51.906Z,95088.56
2023-01-20T03:08:55.833Z,95099.09
2023-01-20T03:14:06.461Z,95104.06
2023-01-20T03:19:09.443Z,95101.03
2023-01-20T03:24:11.633Z,95099.72
2023-01-20T03:29:13.161Z,95105.38
2023-01-20T03:34:19.092Z,95104.63
2023-01-20T03:39:23.217Z,95113.88
2023-01-20T03:44:57.039Z,95109.03
2023-01-20T03:50:07.615Z,95114.50
2023-01-20T03:55:14.319Z,95119.28
2023-01-20T04:00:17.798Z,95123.66
2023-01-20T04:05:19.815Z,95141.59
2023-01-20T04:10:23.846Z,95137.91
2023-01-20T04:15:29.094Z,95142.09
2023-01-20T04:20:32.017Z,95144.41
2023-01-20T04:25:33.699Z,95138.91
2023-01-20T04:30:35.175Z,95154.13
2023-01-20T04:35:36.737Z,95141.81
2023-01-20T04:40:38.206Z,95159.75
2023-01-20T04:45:41.328Z,95172.56
2023-01-20T04:50:43.703Z,95172.25
2023-01-20T04:55:46.133Z,95171.81
2023-01-20T05:00:47.604Z,95178.19
2023-01-20T05:05:55.723Z,95196.34
2023-01-20T05:10:57.235Z,95203.59
2023-01-20T05:16:00.675Z,95214.41
2023-01-20T05:21:04.764Z,95219.97
2023-01-20T05:26:06.270Z,95218.50
2023-01-20T05:31:07.910Z,95224.91
2023-01-20T05:36:10.846Z,95233.78
2023-01-20T05:41:12.362Z,95232.88
2023-01-20T05:46:13.919Z,95249.19
2023-01-20T05:51:15.517Z,95257.59
2023-01-20T05:56:17.015Z,95270.66
2023-01-20T06:01:18.519Z,95270.44
2023-01-20T06:06:20.072Z,95278.66
2023-01-20T06:11:21.780Z,95284.97
2023-01-20T06:16:23.525Z,95280.44
2023-01-20T06:21:25.099Z,95288.91
2023-01-20T06:26:26.610Z,95301.97
2023-01-20T06:31:28.197Z,95311.63
2023-01-20T06:36:29.747Z,95318.56
2023-01-20T06:41:31.224Z,95326.19
2023-01-20T06:46:32.770Z,95336.94
2023-01-20T06:51:34.302Z,95349.41
2023-01-20T06:56:36.109Z,95350.72
2023-01-20T07:01:37.759Z,95363.97
2023-01-20T07:06:40.841Z,95362.00
2023-01-20T07:11:42.339Z,95367.25
2023-01-20T07:16:43.867Z,95373.31
2023-01-20T07:21:45.437Z,95389.75
2023-01-20T07:26:46.939Z,95400.84
2023-01-20T07:31:48.465Z,95398.81
2023-01-20T07:36:52.293Z,95403.78
2023-01-20T07:41:53.934Z,95406.06
2023-01-20T07:46:55.453Z,95414.53
2023-01-20T07:51:56.981Z,95422.28
2023-01-20T07:56:58.474Z,95434.81
2023-01-20T08:02:00.013Z,95446.72
2023-01-20T08:07:01.623Z,95452.94
2023-01-20T08:12:03.374Z,95462.72
2023-01-20T08:17:04.832Z,95467.44
2023-01-20T08:22:06.512Z,95472.56
2023-01-20T08:27:07.990Z,95482.06
2023-01-20T08:32:09.476Z,95486.75
2023-01-20T08:37:10.939Z,95495.75
2023-01-20T08:42:12.388Z,95496.59
2023-01-20T08:47:13.881Z,95501.78
2023-01-20T08:52:15.408Z,95506.28
2023-01-20T08:57:19.937Z,95519.03
2023-01-20T09:02:22.170Z,95526.13
2023-01-20T09:07:23.741Z,95519.03
2023-01-20T09:12:25.276Z,95529.78
2023-01-20T09:17:26.752Z,95539.50
2023-01-20T09:22:28.259Z,95541.06
2023-01-20T09:27:29.846Z,95553.94
2023-01-20T09:32:31.323Z,95553.84
2023-01-20T09:37:33.187Z,95559.34
2023-01-20T09:42:50.322Z,95556.94
2023-01-20T09:47:59.096Z,95555.63
2023-01-20T09:53:24.353Z,95573.69
2023-01-20T09:58:30.541Z,95569.69
2023-01-20T10:03:41.801Z,95579.44
2023-01-20T10:09:04.802Z,95573.84
2023-01-20T10:14:35.586Z,95589.03
2023-01-20T10:19:56.090Z,95581.50
2023-01-20T10:25:17.988Z,95594.53
2023-01-20T10:30:23.656Z,95588.41
2023-01-20T10:35:27.612Z,95584.22
2023-01-20T10:40:49.410Z,95599.16
2023-01-20T10:45:53.520Z,95589.81
2023-01-20T10:50:58.478Z,95597.84
2023-01-20T10:56:11.861Z,95588.53
2023-01-20T11:01:16.413Z,95590.78
2023-01-20T11:06:26.235Z,95590.25
2023-01-20T11:11:28.573Z,95594.75
2023-01-20T11:16:30.579Z,95590.16
2023-01-20T11:21:34.170Z,95586.34
2023-01-20T11:26:37.805Z,95590.69
2023-01-20T11:31:44.595Z,95591.09
2023-01-20T11:36:46.373Z,95588.09
2023-01-20T11:41:47.883Z,95587.34
2023-01-20T11:46:49.420Z,95587.75
2023-01-20T11:51:54.036Z,95582.81
2023-01-20T11:56:58.772Z,95584.94
2023-01-20T12:02:06.571Z,95579.28
2023-01-20T12:07:14.752Z,95587.03
2023-01-20T12:12:47.127Z,95595.88
2023-01-20T12:17:48.504Z,95600.78
2023-01-20T12:23:14.532Z,95599.78
2023-01-20T12:28:42.175Z,95599.06
2023-01-20T12:33:45.345Z,95601.97
2023-01-20T12:39:01.922Z,95599.81
2023-01-20T12:44:33.141Z,95608.13
2023-01-20T12:49:40.677Z,95611.69
2023-01-20T12:54:57.093Z,95605.44
2023-01-20T13:00:25.829Z,95609.91
2023-01-20T13:05:52.102Z,95613.59
2023-01-20T13:11:22.628Z,95609.19
2023-01-20T13:16:34.701Z,95614.50
2023-01-20T13:21:36.226Z,95609.16
2023-01-20T13:26:38.126Z,95617.00
2023-01-20T13:31:46.358Z,95618.94
2023-01-20T13:37:03.234Z,95626.13
2023-01-20T13:42:46.041Z,95626.97
2023-01-20T13:47:50.342Z,95642.81
2023-01-20T13:52:51.780Z,95632.75
2023-01-20T13:57:53.259Z,95636.41
2023-01-20T14:02:56.136Z,95638.34
2023-01-20T14:07:59.623Z,95641.53
2023-01-20T14:13:01.153Z,95648.06
2023-01-20T14:18:14.062Z,95649.19
2023-01-20T14:23:24.329Z,95648.69
2023-01-20T14:28:26.047Z,95657.22
2023-01-20T14:33:27.519Z,95667.22
2023-01-20T14:38:29.728Z,95670.66
2023-01-20T14:43:31.531Z,95662.38
2023-01-20T14:48:35.081Z,95669.88
2023-01-20T14:53:36.691Z,95687.41
2023-01-20T14:58:44.885Z,95684.66
2023-01-20T15:03:46.532Z,95689.31
2023-01-20T15:09:05.020Z,95703.41
2023-01-20T15:14:09.551Z,95706.97
2023-01-20T15:19:13.861Z,95707.47
2023-01-20T15:24:19.198Z,95705.78
2023-01-20T15:29:23.565Z,95707.22
2023-01-20T15:34:26.119Z,95708.63
2023-01-20T15:39:28.728Z,95711.66
2023-01-20T15:44:30.223Z,95727.69
2023-01-20T15:49:31.703Z,95726.63
2023-01-20T15:54:33.165Z,95736.06
2023-01-20T15:59:34.674Z,95739.00
2023-01-20T16:04:36.127Z,95742.16
2023-01-20T16:09:37.641Z,95745.53
2023-01-20T16:14:39.741Z,95745.00
2023-01-20T16:19:41.320Z,95753.16
2023-01-20T16:24:43.150Z,95762.13
2023-01-20T16:29:45.232Z,95761.28
2023-01-20T16:34:46.751Z,95765.38
2023-01-20T16:39:48.253Z,95762.69
2023-01-20T16:44:49.811Z,95770.19
2023-01-20T16:49:51.266Z,95771.47
2023-01-20T16:54:52.762Z,95782.41
2023-01-20T16:59:54.252Z,95781.81
2023-01-20T17:04:55.725Z,95788.09
2023-01-20T17:09:57.171Z,95800.34
2023-01-20T17:14:58.744Z,95798.56
2023-01-20T17:20:00.271Z,95808.31
2023-01-20T17:25:02.152Z,95821.94
2023-01-20T17:30:05.936Z,95815.84
2023-01-20T17:35:07.647Z,95821.19
2023-01-20T17:40:10.920Z,95822.75
2023-01-20T17:45:12.602Z,95826.44
2023-01-20T17:50:14.417Z,95826.03
2023-01-20T17:55:16.435Z,95820.97
2023-01-20T18:00:18.900Z,95831.69
2023-01-20T18:05:20.601Z,95836.94
2023-01-20T18:10:22.070Z,95840.81
2023-01-20T18:15:23.543Z,95841.28
2023-01-20T18:20:25.060Z,95851.13
2023-01-20T18:25:26.506Z,95849.25
2023-01-20T18:30:28.004Z,95849.25
2023-01-20T18:35:29.942Z,95848.75
2023-01-20T18:40:31.500Z,95848.50
2023-01-20T18:45:32.974Z,95848.78
2023-01-20T18:50:34.696Z,95849.59
2023-01-20T18:55:36.227Z,95856.53
2023-01-20T19:00:38.040Z,95858.03
2023-01-20T19:05:39.679Z,95851.28
2023-01-20T19:10:41.163Z,95849.97
2023-01-20T19:15:42.784Z,95853.44
2023-01-20T19:20:44.336Z,95854.09
2023-01-20T19:25:45.809Z,95846.69
2023-01-20T19:30:47.409Z,95855.22
2023-01-20T19:35:48.939Z,95854.16
2023-01-20T19:40:50.412Z,95860.22
2023-01-20T19:45:51.866Z,95854.13
2023-01-20T19:50:53.406Z,95862.63
2023-01-20T19:56:04.189Z,95864.28
2023-01-20T20:01:10.605Z,95866.41
2023-01-20T20:06:33.540Z,95865.75
2023-01-20T20:11:35.477Z,95863.59
2023-01-20T20:16:37.689Z,95862.97
2023-01-20T20:21:39.346Z,95868.66
2023-01-20T20:26:41.433Z,95878.88
2023-01-20T20:31:43.022Z,95876.91
2023-01-20T20:36:45.310Z,95871.78
2023-01-20T20:41:47.183Z,95878.44
2023-01-20T20:46:48.733Z,95879.97
2023-01-20T20:51:50.282Z,95881.63
2023-01-20T20:56:51.717Z,95884.63
2023-01-20T21:01:53.227Z,95887.88
2023-01-20T21:06:54.705Z,95883.84
2023-01-20T21:11:56.171Z,95901.72
2023-01-20T21:16:57.688Z,95899.13
2023-01-20T21:21:59.173Z,95918.78
2023-01-20T21:27:00.714Z,95907.59
2023-01-20T21:32:02.155Z,95916.91
2023-01-20T21:37:03.709Z,95911.25
2023-01-20T21:42:05.336Z,95913.94
2023-01-20T21:47:07.043Z,95914.22
2023-01-20T21:52:13.547Z,95921.13
2023-01-20T21:57:15.039Z,95921.69
2023-01-20T22:02:16.642Z,95920.13
2023-01-20T22:07:18.241Z,95925.09
2023-01-20T22:12:19.763Z,95924.16
2023-01-20T22:17:21.294Z,95916.59
2023-01-20T22:22:22.874Z,95930.97
2023-01-20T22:27:24.411Z,95920.63
2023-01-20T22:32:26.841Z,95924.19
2023-01-20T22:37:31.119Z,95924.41
2023-01-20T22:42:32.696Z,95923.25
2023-01-20T22:47:34.241Z,95918.84
2023-01-20T22:52:35.689Z,95919.44
2023-01-20T22:57:37.223Z,95917.47
2023-01-20T23:02:38.752Z,95919.78
2023-01-20T23:07:40.269Z,95912.59
2023-01-20T23:12:41.828Z,95911.22
2023-01-20T23:17:43.349Z,95928.38
2023-01-20T23:22:44.883Z,95929.19
2023-01-20T23:27:46.375Z,95930.59
2023-01-20T23:32:47.909Z,95933.88
2023-01-20T23:37:49.430Z,95931.09
2023-01-20T23:42:50.942Z,95933.31
2023-01-20T23:47:52.408Z,95930.72
2023-01-20T23:52:53.906Z,95930.31
2023-01-20T23:57:55.811Z,95930.31
